Time;durP1;ratioP1;P1;durP2;ratioP2;P2;SDS_P1;SDS_P2;PMS_P1;PMS_P2;Temp;Humidity;BMP_temperature;BMP_pressure;BME280_temperature;BME280_humidity;BME280_pressure;Samples;Min_cycle;Max_cycle;Signal;HPM_P1;HPM_P2
2024/01/25 00:02:08;;;;;;;22.23;2.93;;;;;;;;;;5109632;27;20145;-60
2024/01/25 00:04:34;;;;;;;23.73;3.70;;;;;;;;;;5115655;27;20096;-60
2024/01/25 00:06:59;;;;;;;13.33;3.13;;;;;;;;;;5118172;27;20024;-60
2024/01/25 00:09:24;;;;;;;27.13;2.90;;;;;;;;;;5114443;27;20047;-59
2024/01/25 00:11:49;;;;;;;28.63;3.80;;;;;;;;;;5106908;27;20027;-60
2024/01/25 00:14:15;;;;;;;19.03;3.10;;;;;;;;;;5117976;27;20383;-61
2024/01/25 00:16:41;;;;;;;20.30;2.97;;;;;;;;;;5090098;27;20024;-60
2024/01/25 00:19:06;;;;;;;24.03;3.00;;;;;;;;;;5094508;27;20450;-62
2024/01/25 00:21:31;;;;;;;23.63;3.23;;;;;;;;;;5113423;27;20510;-60
2024/01/25 00:23:56;;;;;;;14.70;3.10;;;;;;;;;;5110840;27;20435;-61
2024/01/25 00:26:22;;;;;;;16.80;2.73;;;;;;;;;;5111386;27;20050;-60
2024/01/25 00:28:47;;;;;;;21.47;3.97;;;;;;;;;;5119545;27;20057;-60
2024/01/25 00:31:12;;;;;;;24.47;3.63;;;;;;;;;;5119065;27;20019;-60
2024/01/25 00:33:37;;;;;;;28.50;3.27;;;;;;;;;;5118650;27;20053;-60
2024/01/25 00:36:03;;;;;;;22.03;2.73;;;;;;;;;;5119218;27;20020;-61
2024/01/25 00:38:28;;;;;;;18.97;2.77;;;;;;;;;;5116340;27;20023;-60
2024/01/25 00:40:54;;;;;;;22.50;2.70;;;;;;;;;;5117609;27;20035;-60
2024/01/25 00:43:19;;;;;;;17.47;2.10;;;;;;;;;;5114753;27;20090;-61
2024/01/25 00:45:45;;;;;;;20.73;3.63;;;;;;;;;;5114055;27;20380;-60
2024/01/25 00:48:11;;;;;;;17.50;2.80;;;;;;;;;;5102601;27;20031;-60
2024/01/25 00:50:37;;;;;;;20.90;3.27;;;;;;;;;;5108924;27;20027;-61
2024/01/25 00:53:03;;;;;;;21.80;3.10;;;;;;;;;;5109230;27;20023;-60
2024/01/25 00:55:28;;;;;;;23.10;3.40;;;;;;;;;;5112451;27;20699;-59
2024/01/25 00:57:54;;;;;;;22.47;3.30;;;;;;;;;;5111770;27;20019;-60
2024/01/25 01:00:20;;;;;;;27.80;3.60;;;;;;;;;;5117110;27;20020;-60
2024/01/25 01:02:45;;;;;;;23.93;3.20;;;;;;;;;;5106144;27;20034;-62
2024/01/25 01:05:11;;;;;;;25.60;3.93;;;;;;;;;;5110755;27;20032;-60
2024/01/25 01:07:37;;;;;;;18.27;2.87;;;;;;;;;;5109653;27;20027;-60
2024/01/25 01:10:02;;;;;;;25.77;3.63;;;;;;;;;;5114434;27;20032;-61
2024/01/25 01:12:28;;;;;;;25.47;3.57;;;;;;;;;;5117663;27;20494;-60
2024/01/25 01:14:53;;;;;;;22.37;3.13;;;;;;;;;;5111110;27;20034;-61
2024/01/25 01:17:18;;;;;;;19.23;3.07;;;;;;;;;;5104494;27;20478;-60
2024/01/25 01:19:44;;;;;;;16.60;3.23;;;;;;;;;;5111901;27;20028;-60
2024/01/25 01:22:09;;;;;;;29.07;3.77;;;;;;;;;;5110349;27;20038;-60
2024/01/25 01:24:34;;;;;;;20.03;3.07;;;;;;;;;;5112556;27;20034;-60
2024/01/25 01:27:00;;;;;;;27.57;3.30;;;;;;;;;;5111138;27;20051;-61
2024/01/25 01:29:25;;;;;;;25.20;3.33;;;;;;;;;;5115219;27;20035;-61
2024/01/25 01:31:50;;;;;;;17.33;2.40;;;;;;;;;;5109683;27;20023;-61
2024/01/25 01:34:17;;;;;;;24.30;3.10;;;;;;;;;;5106875;27;20461;-61
2024/01/25 01:36:42;;;;;;;24.23;3.10;;;;;;;;;;5100822;27;20027;-60
2024/01/25 01:39:08;;;;;;;24.20;2.73;;;;;;;;;;5118351;27;20012;-61
2024/01/25 01:41:33;;;;;;;26.67;2.83;;;;;;;;;;5118515;27;21287;-61
2024/01/25 01:43:58;;;;;;;24.27;3.83;;;;;;;;;;5117314;27;20106;-61
2024/01/25 01:46:34;;;;;;;21.23;3.07;;;;;;;;;;5108199;27;20039;-61
2024/01/25 01:49:00;;;;;;;27.97;2.80;;;;;;;;;;5101864;27;20088;-60
2024/01/25 01:51:25;;;;;;;29.03;3.63;;;;;;;;;;5105872;27;20019;-65
2024/01/25 01:53:51;;;;;;;25.30;3.53;;;;;;;;;;5118502;27;20031;-64
2024/01/25 01:56:16;;;;;;;24.47;3.77;;;;;;;;;;5109829;27;20031;-65
2024/01/25 01:58:42;;;;;;;18.17;3.23;;;;;;;;;;5096742;28;20377;-65
2024/01/25 02:01:07;;;;;;;20.90;2.87;;;;;;;;;;5105049;27;20402;-65
2024/01/25 02:03:33;;;;;;;23.40;3.40;;;;;;;;;;5105108;27;20044;-65
2024/01/25 02:06:02;;;;;;;32.30;3.80;;;;;;;;;;5081355;28;20024;-64
2024/01/25 02:08:28;;;;;;;20.17;3.53;;;;;;;;;;5095649;28;20599;-65
2024/01/25 02:10:53;;;;;;;21.10;3.13;;;;;;;;;;5093002;28;20027;-64
2024/01/25 02:13:18;;;;;;;28.57;4.00;;;;;;;;;;5095630;28;20022;-65
2024/01/25 02:15:44;;;;;;;19.27;3.30;;;;;;;;;;5094511;28;20024;-65
2024/01/25 02:18:09;;;;;;;26.47;3.20;;;;;;;;;;5092936;28;20052;-65
2024/01/25 02:20:34;;;;;;;20.40;2.80;;;;;;;;;;5093807;28;20385;-65
2024/01/25 02:23:00;;;;;;;19.70;3.17;;;;;;;;;;5087574;28;20399;-65
2024/01/25 02:25:25;;;;;;;32.27;3.80;;;;;;;;;;5093336;28;20111;-64
2024/01/25 02:27:50;;;;;;;25.60;3.80;;;;;;;;;;5085667;28;20035;-65
2024/01/25 02:30:15;;;;;;;27.10;3.27;;;;;;;;;;5092573;28;20081;-65
2024/01/25 02:32:42;;;;;;;27.63;3.67;;;;;;;;;;5092693;28;20027;-65
2024/01/25 02:35:07;;;;;;;23.27;3.23;;;;;;;;;;5082113;28;20028;-65
2024/01/25 02:37:33;;;;;;;20.10;3.70;;;;;;;;;;5083623;28;20035;-65
2024/01/25 02:39:58;;;;;;;19.27;2.93;;;;;;;;;;5092787;28;20032;-65
2024/01/25 02:42:23;;;;;;;28.20;3.67;;;;;;;;;;5093058;28;20380;-65
2024/01/25 02:44:49;;;;;;;24.23;3.43;;;;;;;;;;5089834;28;20529;-65
2024/01/25 02:47:15;;;;;;;26.97;3.70;;;;;;;;;;5096774;28;20036;-65
2024/01/25 02:49:40;;;;;;;16.13;2.80;;;;;;;;;;5092308;28;20166;-65
2024/01/25 02:52:05;;;;;;;25.63;3.60;;;;;;;;;;5098170;28;20099;-65
2024/01/25 02:54:34;;;;;;;26.17;4.10;;;;;;;;;;5093950;28;20008;-65
2024/01/25 02:56:59;;;;;;;25.57;3.53;;;;;;;;;;5095425;28;20498;-65
2024/01/25 02:59:24;;;;;;;26.20;4.10;;;;;;;;;;5103384;28;20012;-65
2024/01/25 03:01:50;;;;;;;30.93;3.67;;;;;;;;;;5087852;28;20095;-65
2024/01/25 03:04:16;;;;;;;27.03;3.27;;;;;;;;;;5089075;28;20044;-65
2024/01/25 03:06:41;;;;;;;19.17;2.70;;;;;;;;;;5098058;28;20018;-65
2024/01/25 03:09:06;;;;;;;25.00;3.13;;;;;;;;;;5090137;28;20031;-65
2024/01/25 03:11:31;;;;;;;22.10;3.20;;;;;;;;;;5099745;28;20020;-65
2024/01/25 03:13:57;;;;;;;30.03;3.57;;;;;;;;;;5094688;28;20484;-65
2024/01/25 03:16:22;;;;;;;17.13;3.43;;;;;;;;;;5097560;28;20035;-65
2024/01/25 03:18:47;;;;;;;22.93;2.63;;;;;;;;;;5097820;28;20066;-65
2024/01/25 03:21:12;;;;;;;20.93;3.80;;;;;;;;;;5093428;28;20020;-64
2024/01/25 03:23:38;;;;;;;26.70;2.67;;;;;;;;;;5100278;28;20024;-65
2024/01/25 03:26:04;;;;;;;20.53;3.10;;;;;;;;;;5095228;28;20012;-65
2024/01/25 03:28:29;;;;;;;25.87;3.20;;;;;;;;;;5098604;28;20016;-65
2024/01/25 03:30:54;;;;;;;20.27;4.03;;;;;;;;;;5096855;28;20023;-65
2024/01/25 03:33:19;;;;;;;22.00;2.97;;;;;;;;;;5092911;28;20028;-64
2024/01/25 03:35:45;;;;;;;19.40;3.07;;;;;;;;;;5096735;28;20062;-65
2024/01/25 03:38:10;;;;;;;27.43;3.30;;;;;;;;;;5095489;28;20016;-65
2024/01/25 03:40:35;;;;;;;21.60;3.40;;;;;;;;;;5096977;28;20020;-65
2024/01/25 03:43:00;;;;;;;21.63;2.57;;;;;;;;;;5093343;28;20520;-65
2024/01/25 03:45:26;;;;;;;25.30;3.37;;;;;;;;;;5093571;28;20047;-65
2024/01/25 03:47:51;;;;;;;19.97;3.43;;;;;;;;;;5099701;28;20101;-64
2024/01/25 03:50:16;;;;;;;22.40;3.17;;;;;;;;;;5092938;28;20020;-65
2024/01/25 03:52:41;;;;;;;29.93;3.60;;;;;;;;;;5093306;28;20024;-65
2024/01/25 03:55:07;;;;;;;22.77;2.30;;;;;;;;;;5091713;28;20036;-64
2024/01/25 03:57:32;;;;;;;30.60;2.50;;;;;;;;;;5095367;28;20030;-65
2024/01/25 03:59:57;;;;;;;20.60;3.00;;;;;;;;;;5094474;28;20024;-65
2024/01/25 04:02:23;;;;;;;19.20;3.13;;;;;;;;;;5089387;28;20385;-65
2024/01/25 04:04:48;;;;;;;22.27;3.10;;;;;;;;;;5104919;27;20135;-65
2024/01/25 04:07:13;;;;;;;24.27;2.80;;;;;;;;;;5116094;27;20105;-65
2024/01/25 04:09:39;;;;;;;17.27;2.43;;;;;;;;;;5119963;27;20032;-65
2024/01/25 04:12:05;;;;;;;18.90;3.73;;;;;;;;;;5114913;27;20480;-59
2024/01/25 04:14:30;;;;;;;22.47;2.80;;;;;;;;;;5120394;27;20062;-61
2024/01/25 04:16:55;;;;;;;23.63;2.97;;;;;;;;;;5109234;27;20019;-60
2024/01/25 04:19:21;;;;;;;20.80;3.33;;;;;;;;;;5115050;27;20058;-60
2024/01/25 04:21:46;;;;;;;24.40;3.60;;;;;;;;;;5118139;27;20416;-61
2024/01/25 04:24:11;;;;;;;31.37;3.13;;;;;;;;;;5108340;27;20027;-61
2024/01/25 04:26:36;;;;;;;30.93;3.87;;;;;;;;;;5117752;27;20099;-60
2024/01/25 04:29:02;;;;;;;18.50;2.47;;;;;;;;;;5112344;27;20020;-60
2024/01/25 04:31:27;;;;;;;28.63;3.60;;;;;;;;;;5118158;27;20118;-60
2024/01/25 04:33:53;;;;;;;25.83;3.07;;;;;;;;;;5113291;27;20023;-60
2024/01/25 04:36:18;;;;;;;23.13;2.93;;;;;;;;;;5095596;28;20020;-60
2024/01/25 04:38:43;;;;;;;19.57;3.17;;;;;;;;;;5094765;28;20031;-60
2024/01/25 04:41:08;;;;;;;19.90;3.00;;;;;;;;;;5093893;27;20496;-61
2024/01/25 04:43:37;;;;;;;23.90;3.07;;;;;;;;;;5111889;27;20031;-62
2024/01/25 04:46:02;;;;;;;23.93;3.50;;;;;;;;;;5111682;28;20498;-61
2024/01/25 04:48:28;;;;;;;34.70;4.57;;;;;;;;;;5112916;27;20055;-61
2024/01/25 04:50:53;;;;;;;25.80;2.90;;;;;;;;;;5116723;27;20483;-62
2024/01/25 04:53:18;;;;;;;18.97;3.13;;;;;;;;;;5110166;27;20472;-61
2024/01/25 04:55:44;;;;;;;22.90;2.80;;;;;;;;;;5100424;28;20028;-62
2024/01/25 04:58:09;;;;;;;28.27;3.70;;;;;;;;;;5106298;27;20031;-62
2024/01/25 05:00:35;;;;;;;20.97;2.80;;;;;;;;;;5113411;27;20028;-62
2024/01/25 05:03:00;;;;;;;27.40;3.43;;;;;;;;;;5112631;27;20051;-62
2024/01/25 05:05:25;;;;;;;30.00;3.90;;;;;;;;;;5116651;27;20037;-62
2024/01/25 05:07:51;;;;;;;23.97;3.07;;;;;;;;;;5115224;27;20495;-60
2024/01/25 05:10:16;;;;;;;24.17;3.30;;;;;;;;;;5114166;27;20039;-61
2024/01/25 05:12:41;;;;;;;21.07;3.00;;;;;;;;;;5112370;27;20035;-61
2024/01/25 05:15:10;;;;;;;27.73;3.93;;;;;;;;;;5114866;27;20023;-62
2024/01/25 05:17:35;;;;;;;26.93;3.03;;;;;;;;;;5115970;27;20107;-60
2024/01/25 05:20:02;;;;;;;29.97;3.63;;;;;;;;;;5106816;27;20466;-61
2024/01/25 05:22:28;;;;;;;28.00;2.93;;;;;;;;;;5107735;27;20080;-62
2024/01/25 05:24:53;;;;;;;22.50;3.20;;;;;;;;;;5117743;27;20473;-60
2024/01/25 05:27:18;;;;;;;25.13;3.33;;;;;;;;;;5096703;27;20135;-61
2024/01/25 05:29:43;;;;;;;28.13;3.40;;;;;;;;;;5116246;27;20027;-62
2024/01/25 05:32:09;;;;;;;23.80;3.60;;;;;;;;;;5116479;27;20153;-61
2024/01/25 05:34:34;;;;;;;30.80;3.63;;;;;;;;;;5116770;27;20490;-61
2024/01/25 05:36:59;;;;;;;35.63;4.97;;;;;;;;;;5115296;27;20028;-61
2024/01/25 05:39:25;;;;;;;29.30;4.07;;;;;;;;;;5115808;27;20031;-61
2024/01/25 05:41:50;;;;;;;26.70;3.10;;;;;;;;;;5117243;27;20035;-61
2024/01/25 05:44:15;;;;;;;21.47;3.50;;;;;;;;;;5121173;27;20435;-62
2024/01/25 05:46:40;;;;;;;28.43;3.20;;;;;;;;;;5114950;27;20016;-61
2024/01/25 05:49:06;;;;;;;25.83;3.30;;;;;;;;;;5107847;27;20107;-61
2024/01/25 05:51:31;;;;;;;24.87;3.87;;;;;;;;;;5115640;27;20019;-61
2024/01/25 05:53:56;;;;;;;21.03;3.77;;;;;;;;;;5106437;27;20030;-61
2024/01/25 05:56:21;;;;;;;39.00;4.40;;;;;;;;;;5114155;27;20376;-61
2024/01/25 05:58:47;;;;;;;26.50;3.43;;;;;;;;;;5108397;27;20027;-61
2024/01/25 06:01:12;;;;;;;29.00;4.13;;;;;;;;;;5108847;27;20383;-61
2024/01/25 06:03:37;;;;;;;35.97;3.77;;;;;;;;;;5114924;27;20118;-61
2024/01/25 06:06:02;;;;;;;27.30;3.73;;;;;;;;;;5110286;27;20034;-62
2024/01/25 06:08:28;;;;;;;25.27;4.73;;;;;;;;;;5107759;27;20028;-61
2024/01/25 06:10:53;;;;;;;31.73;4.17;;;;;;;;;;5102516;27;20464;-61
2024/01/25 06:13:18;;;;;;;31.67;5.20;;;;;;;;;;5097038;28;20059;-62
2024/01/25 06:15:43;;;;;;;35.47;4.23;;;;;;;;;;5113395;27;20011;-61
2024/01/25 06:18:09;;;;;;;29.67;4.10;;;;;;;;;;5111451;27;20080;-61
2024/01/25 06:20:34;;;;;;;38.67;5.03;;;;;;;;;;5090366;28;20054;-60
2024/01/25 06:22:59;;;;;;;39.07;5.83;;;;;;;;;;5108827;27;20369;-60
2024/01/25 06:25:26;;;;;;;33.33;4.60;;;;;;;;;;5113618;27;20027;-62
2024/01/25 06:27:51;;;;;;;35.17;3.83;;;;;;;;;;5106511;28;20037;-61
2024/01/25 06:30:17;;;;;;;32.30;3.73;;;;;;;;;;5105146;28;20099;-61
2024/01/25 06:32:42;;;;;;;20.27;3.17;;;;;;;;;;5113414;28;20356;-60
2024/01/25 06:35:07;;;;;;;30.37;4.03;;;;;;;;;;5111687;27;20168;-60
2024/01/25 06:37:33;;;;;;;37.40;4.10;;;;;;;;;;5117172;28;20024;-60
2024/01/25 06:39:58;;;;;;;33.77;4.47;;;;;;;;;;5118137;28;20125;-60
2024/01/25 06:42:23;;;;;;;31.10;3.63;;;;;;;;;;5121853;28;20019;-63
2024/01/25 06:44:49;;;;;;;28.23;3.40;;;;;;;;;;5117485;28;20103;-60
2024/01/25 06:47:14;;;;;;;32.37;4.00;;;;;;;;;;5116359;28;20644;-60
2024/01/25 06:49:39;;;;;;;30.70;4.10;;;;;;;;;;5123303;28;20790;-60
2024/01/25 06:52:05;;;;;;;24.63;3.13;;;;;;;;;;5119531;28;20031;-60
2024/01/25 06:54:31;;;;;;;37.00;3.90;;;;;;;;;;5104170;28;20111;-60
2024/01/25 06:56:56;;;;;;;29.47;4.30;;;;;;;;;;5113241;28;20023;-60
2024/01/25 06:59:21;;;;;;;22.67;3.47;;;;;;;;;;5118841;28;20489;-61
2024/01/25 07:01:47;;;;;;;30.63;4.23;;;;;;;;;;5113499;28;20024;-61
2024/01/25 07:04:12;;;;;;;32.10;4.10;;;;;;;;;;5102300;28;20393;-61
2024/01/25 07:06:37;;;;;;;33.13;5.70;;;;;;;;;;5090985;28;20036;-61
2024/01/25 07:09:03;;;;;;;37.23;4.43;;;;;;;;;;5089059;28;20039;-60
2024/01/25 07:11:29;;;;;;;17.87;3.07;;;;;;;;;;5090128;28;20028;-61
2024/01/25 07:13:54;;;;;;;27.17;4.20;;;;;;;;;;5095942;28;20114;-60
2024/01/25 07:16:19;;;;;;;24.73;4.10;;;;;;;;;;5095376;28;20087;-61
2024/01/25 07:18:45;;;;;;;35.13;4.90;;;;;;;;;;5091031;28;20028;-61
2024/01/25 07:21:10;;;;;;;31.07;4.33;;;;;;;;;;5088237;28;20058;-66
2024/01/25 07:23:35;;;;;;;24.50;3.43;;;;;;;;;;5092490;28;20035;-65
2024/01/25 07:26:01;;;;;;;31.57;4.00;;;;;;;;;;5094419;28;20035;-66
2024/01/25 07:28:26;;;;;;;36.70;4.67;;;;;;;;;;5085392;28;20376;-66
2024/01/25 07:30:51;;;;;;;40.73;5.33;;;;;;;;;;5090589;28;20373;-65
2024/01/25 07:33:16;;;;;;;44.33;5.47;;;;;;;;;;5091497;28;20497;-65
2024/01/25 07:35:45;;;;;;;35.70;4.67;;;;;;;;;;5096772;28;20020;-66
2024/01/25 07:38:19;;;;;;;35.87;4.33;;;;;;;;;;5091258;28;20028;-65
2024/01/25 07:40:45;;;;;;;33.73;4.70;;;;;;;;;;5099904;28;20149;-66
2024/01/25 07:43:10;;;;;;;32.87;4.43;;;;;;;;;;5093367;28;20032;-60
2024/01/25 07:45:35;;;;;;;31.50;4.07;;;;;;;;;;5096338;28;20069;-61
2024/01/25 07:48:01;;;;;;;24.37;3.37;;;;;;;;;;5096886;28;20020;-61
2024/01/25 07:50:26;;;;;;;21.60;4.37;;;;;;;;;;5090526;28;20111;-60
2024/01/25 07:52:51;;;;;;;31.37;3.93;;;;;;;;;;5101522;28;20690;-61
2024/01/25 07:55:17;;;;;;;35.67;4.30;;;;;;;;;;5095118;28;20024;-61
2024/01/25 07:57:42;;;;;;;33.90;4.10;;;;;;;;;;5092030;28;20115;-61
2024/01/25 08:00:08;;;;;;;36.73;5.00;;;;;;;;;;5096177;28;20451;-60
2024/01/25 08:02:34;;;;;;;21.03;3.93;;;;;;;;;;5091865;28;20035;-60
2024/01/25 08:04:59;;;;;;;36.37;4.47;;;;;;;;;;5094613;28;20408;-61
2024/01/25 08:07:24;;;;;;;29.20;3.93;;;;;;;;;;5092044;28;20024;-60
2024/01/25 08:09:52;;;;;;;31.37;4.13;;;;;;;;;;5093811;28;20032;-61
2024/01/25 08:12:17;;;;;;;34.73;4.87;;;;;;;;;;5101342;28;20027;-61
2024/01/25 08:14:43;;;;;;;37.43;4.67;;;;;;;;;;5085926;28;20027;-60
2024/01/25 08:17:09;;;;;;;28.27;3.67;;;;;;;;;;5089903;28;20369;-60
2024/01/25 08:19:34;;;;;;;26.27;4.30;;;;;;;;;;5092534;28;20027;-60
2024/01/25 08:22:00;;;;;;;38.33;4.70;;;;;;;;;;5093457;28;20039;-60
2024/01/25 08:24:25;;;;;;;36.23;4.27;;;;;;;;;;5099675;28;20031;-61
2024/01/25 08:26:50;;;;;;;28.90;5.50;;;;;;;;;;5096053;28;20365;-62
2024/01/25 08:29:16;;;;;;;35.47;4.73;;;;;;;;;;5091895;28;20031;-61
2024/01/25 08:31:41;;;;;;;33.37;4.27;;;;;;;;;;5091532;28;20115;-61
2024/01/25 08:34:06;;;;;;;28.77;5.60;;;;;;;;;;5098641;28;20050;-62
2024/01/25 08:36:31;;;;;;;32.97;4.70;;;;;;;;;;5094124;28;20028;-62
2024/01/25 08:38:57;;;;;;;30.07;5.00;;;;;;;;;;5096520;28;20076;-61
2024/01/25 08:41:22;;;;;;;36.30;5.50;;;;;;;;;;5094057;28;20027;-62
2024/01/25 08:43:47;;;;;;;30.80;5.40;;;;;;;;;;5096695;28;20133;-61
2024/01/25 08:46:14;;;;;;;35.13;6.93;;;;;;;;;;5093478;28;20037;-61
2024/01/25 08:48:39;;;;;;;42.47;5.87;;;;;;;;;;5088686;28;20031;-61
2024/01/25 08:51:04;;;;;;;31.43;5.23;;;;;;;;;;5101045;28;20027;-60
2024/01/25 08:53:29;;;;;;;33.80;5.63;;;;;;;;;;5088230;28;20052;-65
2024/01/25 08:55:55;;;;;;;29.00;6.10;;;;;;;;;;5101118;28;20020;-66
2024/01/25 08:58:20;;;;;;;31.37;5.40;;;;;;;;;;5092686;28;20074;-66
2024/01/25 09:00:46;;;;;;;32.07;4.73;;;;;;;;;;5090888;28;20179;-66
2024/01/25 09:03:12;;;;;;;28.60;4.93;;;;;;;;;;5090398;28;20420;-65
2024/01/25 09:05:40;;;;;;;38.33;4.63;;;;;;;;;;5089038;28;20029;-65
2024/01/25 09:08:06;;;;;;;24.30;3.90;;;;;;;;;;5091523;28;20020;-65
2024/01/25 09:10:31;;;;;;;29.73;4.93;;;;;;;;;;5090301;28;20072;-65
2024/01/25 09:12:56;;;;;;;24.77;3.97;;;;;;;;;;5092088;28;20060;-66
2024/01/25 09:15:21;;;;;;;23.20;4.43;;;;;;;;;;5091487;28;20017;-65
2024/01/25 09:17:47;;;;;;;26.87;4.23;;;;;;;;;;5091122;28;20083;-65
2024/01/25 09:20:12;;;;;;;29.87;5.33;;;;;;;;;;5097858;28;20034;-66
2024/01/25 09:22:37;;;;;;;30.20;4.50;;;;;;;;;;5093324;28;20392;-65
2024/01/25 09:25:03;;;;;;;24.10;4.00;;;;;;;;;;5093469;28;20166;-66
2024/01/25 09:27:28;;;;;;;25.87;4.50;;;;;;;;;;5091709;28;20046;-65
2024/01/25 09:29:53;;;;;;;35.87;4.77;;;;;;;;;;5093974;28;20486;-65
2024/01/25 09:32:20;;;;;;;38.30;4.90;;;;;;;;;;5099704;28;20016;-66
2024/01/25 09:34:45;;;;;;;33.67;4.30;;;;;;;;;;5096360;28;20099;-66
2024/01/25 09:37:11;;;;;;;35.20;4.90;;;;;;;;;;5092251;28;20161;-65
2024/01/25 09:39:36;;;;;;;33.63;5.17;;;;;;;;;;5092112;28;20490;-66
2024/01/25 09:42:02;;;;;;;39.77;5.67;;;;;;;;;;5093212;28;20046;-65
2024/01/25 09:44:28;;;;;;;26.40;4.03;;;;;;;;;;5087448;28;20028;-65
2024/01/25 09:46:53;;;;;;;23.20;5.00;;;;;;;;;;5092749;28;20361;-65
2024/01/25 09:49:19;;;;;;;26.97;4.57;;;;;;;;;;5094367;28;20028;-65
2024/01/25 09:51:44;;;;;;;27.67;4.33;;;;;;;;;;5092795;28;20419;-65
2024/01/25 09:54:10;;;;;;;33.93;5.13;;;;;;;;;;5093920;28;20515;-65
2024/01/25 09:56:35;;;;;;;34.77;4.50;;;;;;;;;;5091999;28;20058;-65
2024/01/25 09:59:01;;;;;;;25.90;5.03;;;;;;;;;;5094866;28;20024;-65
2024/01/25 10:01:26;;;;;;;32.27;4.40;;;;;;;;;;5092508;28;20030;-66
2024/01/25 10:03:51;;;;;;;28.67;4.67;;;;;;;;;;5085452;28;20407;-61
2024/01/25 10:06:17;;;;;;;33.83;4.63;;;;;;;;;;5089078;28;20095;-60
2024/01/25 10:08:43;;;;;;;32.30;5.03;;;;;;;;;;5089566;28;20049;-62
2024/01/25 10:11:08;;;;;;;25.90;4.63;;;;;;;;;;5091981;28;20027;-61
2024/01/25 10:13:40;;;;;;;24.67;4.90;;;;;;;;;;5090219;28;20020;-62
2024/01/25 10:16:05;;;;;;;26.37;4.33;;;;;;;;;;5090998;28;20027;-61
2024/01/25 10:18:31;;;;;;;34.83;5.43;;;;;;;;;;5091904;28;20384;-61
2024/01/25 10:20:56;;;;;;;29.83;4.60;;;;;;;;;;5081687;28;20019;-60
2024/01/25 10:23:22;;;;;;;17.53;3.60;;;;;;;;;;5090578;28;20035;-60
2024/01/25 10:25:47;;;;;;;32.90;5.30;;;;;;;;;;5075073;28;20060;-61
2024/01/25 10:28:12;;;;;;;28.17;4.87;;;;;;;;;;5096621;28;20083;-61
2024/01/25 10:30:38;;;;;;;37.50;5.20;;;;;;;;;;5097702;28;20033;-61
2024/01/25 10:33:07;;;;;;;33.97;4.77;;;;;;;;;;5083314;28;20021;-60
2024/01/25 10:35:32;;;;;;;33.37;4.77;;;;;;;;;;5083275;28;20051;-62
2024/01/25 10:37:57;;;;;;;29.20;5.47;;;;;;;;;;5091165;28;20117;-60
2024/01/25 10:40:23;;;;;;;25.40;4.57;;;;;;;;;;5090654;28;20388;-60
2024/01/25 10:42:48;;;;;;;33.57;4.80;;;;;;;;;;5097618;28;20055;-62
2024/01/25 10:45:14;;;;;;;35.13;5.33;;;;;;;;;;5092804;28;20024;-60
2024/01/25 10:47:40;;;;;;;27.47;4.47;;;;;;;;;;5088588;28;20020;-60
2024/01/25 10:50:09;;;;;;;29.63;5.27;;;;;;;;;;5091975;28;20372;-61
2024/01/25 10:52:34;;;;;;;21.83;4.70;;;;;;;;;;5094277;28;20028;-61
2024/01/25 10:55:00;;;;;;;30.63;5.40;;;;;;;;;;5091064;28;20038;-61
2024/01/25 10:57:25;;;;;;;27.03;4.50;;;;;;;;;;5092978;28;20049;-60
2024/01/25 10:59:51;;;;;;;30.60;4.90;;;;;;;;;;5090752;28;20019;-62
2024/01/25 11:02:20;;;;;;;33.13;5.10;;;;;;;;;;5095125;28;20065;-61
2024/01/25 11:04:55;;;;;;;25.27;4.27;;;;;;;;;;5086333;28;20064;-61
2024/01/25 11:07:20;;;;;;;23.30;5.13;;;;;;;;;;5099076;28;20027;-61
2024/01/25 11:09:48;;;;;;;27.90;5.23;;;;;;;;;;5100494;28;20214;-62
2024/01/25 11:12:16;;;;;;;33.50;5.23;;;;;;;;;;5102390;28;20036;-61
2024/01/25 11:14:41;;;;;;;25.50;4.30;;;;;;;;;;5093963;28;20023;-65
2024/01/25 11:17:20;;;;;;;25.53;3.90;;;;;;;;;;5099905;28;20011;-67
2024/01/25 11:19:45;;;;;;;28.67;5.37;;;;;;;;;;5098613;28;20016;-65
2024/01/25 11:22:10;;;;;;;28.67;4.90;;;;;;;;;;5102300;28;20016;-65
2024/01/25 11:24:38;;;;;;;30.60;4.63;;;;;;;;;;5100540;28;20027;-65
2024/01/25 11:27:04;;;;;;;27.70;4.87;;;;;;;;;;5102247;28;20041;-65
2024/01/25 11:29:30;;;;;;;29.83;4.97;;;;;;;;;;5100038;28;20016;-65
2024/01/25 11:31:56;;;;;;;24.47;4.47;;;;;;;;;;5098999;28;20024;-65
2024/01/25 11:34:23;;;;;;;28.17;4.70;;;;;;;;;;5095733;28;20043;-65
2024/01/25 11:36:48;;;;;;;28.70;4.80;;;;;;;;;;5098904;28;20020;-65
2024/01/25 11:39:15;;;;;;;29.57;5.40;;;;;;;;;;5094940;28;20024;-65
2024/01/25 11:41:41;;;;;;;29.77;4.50;;;;;;;;;;5096627;28;20024;-65
2024/01/25 11:44:06;;;;;;;22.73;4.73;;;;;;;;;;5097740;28;20024;-65
2024/01/25 11:46:32;;;;;;;22.37;4.40;;;;;;;;;;5094651;28;20023;-65
2024/01/25 11:49:00;;;;;;;26.13;4.90;;;;;;;;;;5096097;28;20638;-65
2024/01/25 11:51:25;;;;;;;31.50;4.87;;;;;;;;;;5089605;28;20080;-65
2024/01/25 11:53:51;;;;;;;18.73;4.40;;;;;;;;;;5081285;28;20770;-65
2024/01/25 11:56:24;;;;;;;27.70;5.47;;;;;;;;;;5101510;28;20137;-65
2024/01/25 11:58:49;;;;;;;29.17;5.23;;;;;;;;;;5094340;28;20026;-65
2024/01/25 12:01:15;;;;;;;24.50;5.70;;;;;;;;;;5093517;28;20099;-65
2024/01/25 12:03:40;;;;;;;26.40;4.73;;;;;;;;;;5100971;27;20051;-65
2024/01/25 12:06:08;;;;;;;30.27;5.00;;;;;;;;;;5123281;27;20092;-65
2024/01/25 12:08:34;;;;;;;29.07;5.37;;;;;;;;;;5126691;27;20019;-65
2024/01/25 12:11:05;;;;;;;31.50;5.27;;;;;;;;;;5117022;27;20129;-66
2024/01/25 12:13:34;;;;;;;27.57;5.30;;;;;;;;;;5114213;27;20034;-65
2024/01/25 12:16:00;;;;;;;26.57;5.07;;;;;;;;;;5122913;27;20051;-65
2024/01/25 12:18:26;;;;;;;26.07;5.37;;;;;;;;;;5116654;27;20057;-65
2024/01/25 12:20:51;;;;;;;32.07;5.70;;;;;;;;;;5122272;27;20027;-65
2024/01/25 12:23:16;;;;;;;26.70;4.97;;;;;;;;;;5119831;27;20027;-61
2024/01/25 12:25:42;;;;;;;27.00;5.20;;;;;;;;;;5121094;27;20065;-61
2024/01/25 12:28:07;;;;;;;28.53;4.63;;;;;;;;;;5119691;27;20439;-60
2024/01/25 12:30:32;;;;;;;22.53;4.87;;;;;;;;;;5119017;27;20604;-61
2024/01/25 12:32:58;;;;;;;28.60;4.40;;;;;;;;;;5116941;27;20020;-60
2024/01/25 12:35:23;;;;;;;32.40;5.67;;;;;;;;;;5119186;27;20018;-60
2024/01/25 12:37:48;;;;;;;29.73;4.60;;;;;;;;;;5110171;27;20107;-61
2024/01/25 12:40:14;;;;;;;25.87;4.70;;;;;;;;;;5117594;27;20027;-61
2024/01/25 12:42:39;;;;;;;29.27;5.10;;;;;;;;;;5115366;27;20035;-61
2024/01/25 12:45:04;;;;;;;24.20;4.47;;;;;;;;;;5117859;27;20023;-61
2024/01/25 12:47:30;;;;;;;24.10;5.33;;;;;;;;;;5116054;27;20469;-61
2024/01/25 12:49:55;;;;;;;26.40;4.80;;;;;;;;;;5108669;27;20391;-61
2024/01/25 12:52:20;;;;;;;20.23;3.57;;;;;;;;;;5115658;27;20019;-61
2024/01/25 12:54:46;;;;;;;20.57;3.87;;;;;;;;;;5114984;27;20026;-61
2024/01/25 12:57:11;;;;;;;30.47;4.87;;;;;;;;;;5115493;27;20023;-61
2024/01/25 12:59:37;;;;;;;21.30;4.53;;;;;;;;;;5112121;27;20031;-61
2024/01/25 13:02:03;;;;;;;26.13;4.13;;;;;;;;;;5103920;27;20077;-60
2024/01/25 13:04:28;;;;;;;26.77;4.30;;;;;;;;;;5108626;27;20565;-60
2024/01/25 13:06:55;;;;;;;23.13;4.60;;;;;;;;;;5113353;27;20078;-61
2024/01/25 13:09:21;;;;;;;23.80;4.30;;;;;;;;;;5112312;27;20415;-60
2024/01/25 13:11:46;;;;;;;25.43;4.60;;;;;;;;;;5109916;27;20067;-60
2024/01/25 13:14:11;;;;;;;30.47;5.30;;;;;;;;;;5115611;27;20019;-61
2024/01/25 13:16:37;;;;;;;22.63;4.33;;;;;;;;;;5116235;27;20122;-61
2024/01/25 13:19:02;;;;;;;24.43;4.23;;;;;;;;;;5119647;27;20031;-60
2024/01/25 13:21:27;;;;;;;31.93;4.03;;;;;;;;;;5116481;27;20080;-60
2024/01/25 13:23:53;;;;;;;20.57;4.10;;;;;;;;;;5120701;27;20047;-61
2024/01/25 13:26:18;;;;;;;17.50;2.80;;;;;;;;;;5120912;27;20435;-61
2024/01/25 13:28:43;;;;;;;23.87;4.43;;;;;;;;;;5115690;27;20027;-61
2024/01/25 13:31:08;;;;;;;27.47;4.43;;;;;;;;;;5119552;27;20019;-60
2024/01/25 13:33:34;;;;;;;18.73;3.23;;;;;;;;;;5117640;27;20458;-60
2024/01/25 13:35:59;;;;;;;23.47;4.47;;;;;;;;;;5115678;27;20396;-60
2024/01/25 13:38:24;;;;;;;23.00;4.13;;;;;;;;;;5119899;27;20075;-61
2024/01/25 13:40:50;;;;;;;21.50;5.17;;;;;;;;;;5115873;27;20024;-61
2024/01/25 13:43:16;;;;;;;31.93;4.93;;;;;;;;;;5115015;27;20031;-62
2024/01/25 13:45:41;;;;;;;28.30;4.00;;;;;;;;;;5117829;27;20051;-62
2024/01/25 13:48:06;;;;;;;23.10;4.23;;;;;;;;;;5109505;27;20028;-61
2024/01/25 13:50:32;;;;;;;20.17;3.27;;;;;;;;;;5121240;27;20110;-61
2024/01/25 13:52:57;;;;;;;29.57;6.17;;;;;;;;;;5115336;27;20449;-61
2024/01/25 13:55:22;;;;;;;30.90;5.57;;;;;;;;;;5116354;27;20008;-61
2024/01/25 13:57:47;;;;;;;31.80;5.20;;;;;;;;;;5113217;27;20022;-62
2024/01/25 14:00:13;;;;;;;22.47;4.73;;;;;;;;;;5105434;27;20026;-61
2024/01/25 14:02:42;;;;;;;21.43;4.33;;;;;;;;;;5118231;27;20061;-61
2024/01/25 14:05:07;;;;;;;23.87;4.00;;;;;;;;;;5091975;28;20407;-62
2024/01/25 14:07:32;;;;;;;21.67;4.10;;;;;;;;;;5091168;28;20099;-61
2024/01/25 14:09:58;;;;;;;24.13;4.73;;;;;;;;;;5094087;28;20032;-61
2024/01/25 14:12:23;;;;;;;15.50;2.50;;;;;;;;;;5091255;28;20040;-61
2024/01/25 14:14:48;;;;;;;15.90;3.00;;;;;;;;;;5093521;28;20031;-62
2024/01/25 14:17:14;;;;;;;23.97;3.87;;;;;;;;;;5090247;28;20535;-60
2024/01/25 14:19:39;;;;;;;19.63;3.70;;;;;;;;;;5092139;28;20024;-60
2024/01/25 14:22:04;;;;;;;27.80;4.57;;;;;;;;;;5089922;28;20020;-62